Time;durP1;ratioP1;P1;durP2;ratioP2;P2;SDS_P1;SDS_P2;PMS_P1;PMS_P2;Temp;Humidity;BMP_temperature;BMP_pressure;BME280_temperature;BME280_humidity;BME280_pressure;Samples;Min_cycle;Max_cycle;Signal;HPM_P1;HPM_P2
2023/09/07 00:01:13;;;;;;;3.90;3.50;;;;;;;19.68;68.21;156421.25;4990457;28;20441;-80
2023/09/07 00:03:40;;;;;;;4.70;3.60;;;;;;;19.59;68.79;156397.81;4989489;28;20534;-81
2023/09/07 00:06:07;;;;;;;4.37;3.97;;;;;;;19.53;69.31;156382.16;4975670;28;20508;-80
2023/09/07 00:08:33;;;;;;;5.10;3.63;;;;;;;19.42;69.33;156356.09;4971263;28;20446;-80
2023/09/07 00:11:04;;;;;;;3.90;3.60;;;;;;;19.36;69.82;156340.41;4979466;28;20480;-81
2023/09/07 00:13:30;;;;;;;4.50;4.00;;;;;;;19.31;70.09;156326.06;4988670;28;20453;-80
2023/09/07 00:15:59;;;;;;;3.93;3.50;;;;;;;19.29;70.33;156322.16;4982856;28;20524;-80
2023/09/07 00:18:27;;;;;;;3.90;3.50;;;;;;;19.24;70.86;156309.13;4974096;28;20440;-80
2023/09/07 00:20:54;;;;;;;4.13;3.73;;;;;;;19.18;70.85;156292.19;4998075;28;20782;-80
2023/09/07 00:23:20;;;;;;;5.03;3.67;;;;;;;19.11;71.63;156273.94;4985289;28;21035;-81
2023/09/07 00:25:47;;;;;;;6.23;4.33;;;;;;;19.04;71.55;156256.97;5000323;28;20445;-82
2023/09/07 00:28:14;;;;;;;4.70;3.73;;;;;;;19.02;72.13;156250.47;4992572;28;21294;-80
2023/09/07 00:30:41;;;;;;;4.40;4.00;;;;;;;18.93;72.72;156228.31;4985492;28;20453;-80
2023/09/07 00:33:08;;;;;;;4.13;3.73;;;;;;;18.89;72.86;156217.91;4980039;28;20473;-79
2023/09/07 00:35:36;;;;;;;5.23;3.77;;;;;;;18.89;73.10;156217.91;4990166;28;20448;-80
2023/09/07 00:38:03;;;;;;;4.57;4.17;;;;;;;18.88;72.76;156215.28;5003877;28;20454;-80
2023/09/07 00:40:30;;;;;;;4.97;4.30;;;;;;;18.88;73.00;156215.28;4970695;28;20454;-80
2023/09/07 00:42:57;;;;;;;4.80;4.40;;;;;;;18.88;73.16;156215.28;4978179;28;20464;-80
2023/09/07 00:45:23;;;;;;;5.83;4.60;;;;;;;18.88;73.37;156214.03;4974828;28;21000;-80
2023/09/07 00:47:50;;;;;;;4.90;4.40;;;;;;;18.82;73.15;156199.69;4984899;28;20495;-80
2023/09/07 00:50:17;;;;;;;4.43;3.90;;;;;;;18.79;73.75;156191.84;5000773;28;20843;-80
2023/09/07 00:52:46;;;;;;;4.60;4.10;;;;;;;18.75;73.79;156181.41;5007215;28;20475;-80
2023/09/07 00:55:13;;;;;;;4.13;3.80;;;;;;;18.74;73.58;156178.84;4956082;28;20864;-80
2023/09/07 00:57:42;;;;;;;5.03;4.23;;;;;;;18.72;74.25;156173.59;4995764;28;20503;-80
2023/09/07 01:00:10;;;;;;;4.60;4.10;;;;;;;18.71;73.88;156171.00;4990048;28;20441;-80
2023/09/07 01:02:36;;;;;;;6.63;4.00;;;;;;;18.69;73.71;156167.06;5008213;28;20452;-80
2023/09/07 01:05:05;;;;;;;4.30;3.90;;;;;;;18.69;74.20;156165.81;4960617;28;21091;-80
2023/09/07 01:07:34;;;;;;;4.87;4.47;;;;;;;18.68;74.37;156164.50;4945258;28;20442;-80
2023/09/07 01:10:03;;;;;;;5.23;4.20;;;;;;;18.66;74.36;156159.31;4983865;28;20451;-80
2023/09/07 01:12:30;;;;;;;5.37;4.83;;;;;;;18.63;74.71;156151.47;4987054;28;20484;-80
2023/09/07 01:14:58;;;;;;;5.73;5.00;;;;;;;18.58;74.73;156138.44;4987714;28;20512;-80
2023/09/07 01:17:25;;;;;;;5.30;4.23;;;;;;;18.53;75.55;156125.38;4965991;28;20474;-80
2023/09/07 01:19:53;;;;;;;5.30;4.80;;;;;;;18.48;75.92;156111.09;4983192;28;20528;-79
2023/09/07 01:22:22;;;;;;;5.83;4.40;;;;;;;18.42;76.29;156096.72;5007223;28;20452;-80
2023/09/07 01:24:49;;;;;;;4.70;4.30;;;;;;;18.38;76.31;156084.97;4972949;28;20571;-80
2023/09/07 01:27:16;;;;;;;6.63;4.77;;;;;;;18.31;76.81;156066.75;4997029;28;20508;-79
2023/09/07 01:29:42;;;;;;;5.83;4.47;;;;;;;18.27;77.01;156056.34;4977859;28;20454;-80
2023/09/07 01:32:09;;;;;;;6.20;5.00;;;;;;;18.21;77.20;156043.28;4990913;28;20455;-80
2023/09/07 01:34:36;;;;;;;5.57;4.40;;;;;;;18.20;77.23;156040.69;4976283;28;20468;-80
2023/09/07 01:37:03;;;;;;;4.43;4.03;;;;;;;18.18;77.41;156035.50;5010625;28;20449;-80
2023/09/07 01:39:31;;;;;;;5.60;4.43;;;;;;;18.15;77.54;156027.69;4961353;28;20454;-80
2023/09/07 01:41:57;;;;;;;4.70;4.27;;;;;;;18.10;77.50;156014.66;4970067;28;20525;-80
2023/09/07 01:44:25;;;;;;;4.73;4.20;;;;;;;18.04;77.76;155999.03;4961565;28;20480;-80
2023/09/07 01:46:52;;;;;;;4.90;4.40;;;;;;;18.01;78.02;155989.88;4963239;28;20461;-80
2023/09/07 01:49:19;;;;;;;5.07;4.47;;;;;;;17.97;78.08;155980.81;4966598;28;21107;-80
2023/09/07 01:51:45;;;;;;;5.17;4.27;;;;;;;17.94;78.38;155973.00;5006889;28;20511;-80
2023/09/07 01:54:12;;;;;;;5.07;4.57;;;;;;;17.88;78.41;155957.34;4975506;28;20460;-80
2023/09/07 01:56:41;;;;;;;4.60;4.20;;;;;;;17.85;79.11;155949.53;5003552;28;20806;-80
2023/09/07 01:59:07;;;;;;;5.73;4.87;;;;;;;17.86;79.02;155952.16;4981913;28;20816;-80
2023/09/07 02:01:36;;;;;;;5.73;4.10;;;;;;;17.86;78.79;155950.84;4976576;28;20441;-80
2023/09/07 02:04:03;;;;;;;5.20;4.70;;;;;;;17.88;78.98;155956.03;4978417;28;20995;-79
2023/09/07 02:06:30;;;;;;;5.00;4.50;;;;;;;17.87;79.06;155954.72;4954192;28;20463;-80
2023/09/07 02:08:56;;;;;;;5.27;4.77;;;;;;;17.83;79.65;155944.34;4975510;28;20466;-80
2023/09/07 02:11:23;;;;;;;4.80;4.27;;;;;;;17.83;79.68;155944.34;4960111;28;20538;-80
2023/09/07 02:13:51;;;;;;;4.73;4.30;;;;;;;17.77;79.86;155928.69;4974571;28;20815;-80
2023/09/07 02:16:18;;;;;;;5.63;5.13;;;;;;;17.73;80.36;155918.31;4975074;28;20437;-80
2023/09/07 02:18:46;;;;;;;6.20;4.83;;;;;;;17.69;80.51;155907.88;4982848;28;20452;-79
2023/09/07 02:21:13;;;;;;;6.30;5.70;;;;;;;17.66;81.37;155900.06;5001280;28;20829;-79
2023/09/07 02:23:40;;;;;;;5.60;5.00;;;;;;;17.59;81.50;155883.16;4975729;28;20459;-80
2023/09/07 02:26:07;;;;;;;4.90;4.50;;;;;;;17.58;81.63;155880.53;4991045;28;20448;-79
2023/09/07 02:28:34;;;;;;;5.20;4.70;;;;;;;17.52;81.93;155864.91;4953930;28;20462;-80
2023/09/07 02:31:05;;;;;;;5.77;5.17;;;;;;;17.52;82.18;155863.59;4970878;28;20466;-81
2023/09/07 02:33:32;;;;;;;4.93;4.50;;;;;;;17.46;82.29;155847.94;4977895;28;20478;-80
2023/09/07 02:35:59;;;;;;;6.27;5.33;;;;;;;17.46;82.25;155847.94;4968571;28;20588;-80
2023/09/07 02:38:26;;;;;;;5.00;4.53;;;;;;;17.45;82.52;155845.34;4971094;28;20477;-80
2023/09/07 02:40:54;;;;;;;5.70;5.07;;;;;;;17.42;82.55;155837.56;5009560;28;20922;-80
2023/09/07 02:43:22;;;;;;;6.20;5.47;;;;;;;17.40;82.75;155832.31;5004396;28;20497;-80
2023/09/07 02:45:49;;;;;;;5.77;5.17;;;;;;;17.38;82.91;155828.44;4988647;28;20829;-80
2023/09/07 02:48:17;;;;;;;5.50;5.00;;;;;;;17.38;82.66;155827.13;4980913;28;20457;-80
2023/09/07 02:50:48;;;;;;;7.40;5.60;;;;;;;17.36;83.07;155823.25;4973076;28;20460;-80
2023/09/07 02:53:15;;;;;;;6.50;4.90;;;;;;;17.30;82.63;155806.28;4964957;28;20995;-80
2023/09/07 02:55:42;;;;;;;6.10;5.20;;;;;;;17.28;82.99;155801.09;4969750;28;21060;-80
2023/09/07 02:58:09;;;;;;;5.40;4.97;;;;;;;17.23;83.41;155788.09;4975499;28;20821;-81
2023/09/07 03:00:35;;;;;;;5.50;4.70;;;;;;;17.19;83.55;155778.97;4970598;28;20438;-81
2023/09/07 03:03:02;;;;;;;5.30;4.83;;;;;;;17.17;84.16;155772.47;5001787;28;20456;-80
2023/09/07 03:05:30;;;;;;;6.07;5.47;;;;;;;17.17;84.09;155772.47;4978893;28;20486;-80
2023/09/07 03:07:57;;;;;;;6.53;5.73;;;;;;;17.15;84.15;155768.59;4956636;28;20518;-80
2023/09/07 03:10:24;;;;;;;10.40;5.37;;;;;;;17.19;84.28;155778.97;4974897;28;20951;-80
2023/09/07 03:12:51;;;;;;;5.37;4.87;;;;;;;17.15;83.73;155767.28;4980332;28;20460;-81
2023/09/07 03:15:18;;;;;;;5.70;5.17;;;;;;;17.13;83.89;155762.06;4977061;28;20433;-80
2023/09/07 03:17:45;;;;;;;6.30;5.30;;;;;;;17.11;84.04;155756.84;4961116;28;20468;-81
2023/09/07 03:20:13;;;;;;;5.10;4.50;;;;;;;17.07;84.46;155747.75;4981096;28;20445;-81
2023/09/07 03:22:44;;;;;;;6.87;5.50;;;;;;;17.00;84.81;155730.81;4975793;28;20551;-81
2023/09/07 03:25:11;;;;;;;6.10;5.50;;;;;;;16.98;84.97;155725.63;4964994;28;20512;-81
2023/09/07 03:27:39;;;;;;;6.00;5.00;;;;;;;16.95;85.66;155717.81;4961550;28;21016;-81
2023/09/07 03:30:08;;;;;;;6.00;5.40;;;;;;;16.92;85.66;155708.69;4971334;28;20529;-80
2023/09/07 03:32:35;;;;;;;7.80;5.23;;;;;;;16.89;85.85;155702.19;4974529;28;20432;-81
2023/09/07 03:35:06;;;;;;;6.03;5.43;;;;;;;16.82;86.51;155684.00;4990124;28;20991;-81
2023/09/07 03:37:33;;;;;;;6.73;6.13;;;;;;;16.78;86.89;155673.59;4974549;28;20972;-80
2023/09/07 03:40:01;;;;;;;6.60;6.00;;;;;;;16.74;86.95;155663.16;4973187;28;20822;-79
2023/09/07 03:42:28;;;;;;;6.13;5.57;;;;;;;16.67;87.06;155644.97;4990884;28;20443;-80
2023/09/07 03:44:55;;;;;;;6.93;6.23;;;;;;;16.64;87.60;155635.84;4969754;28;21049;-80
2023/09/07 03:47:21;;;;;;;6.47;5.80;;;;;;;16.62;88.12;155631.97;4966317;28;20453;-80
2023/09/07 03:49:48;;;;;;;5.80;5.20;;;;;;;16.59;88.60;155624.16;4991559;28;20544;-80
2023/09/07 03:52:14;;;;;;;6.60;5.60;;;;;;;16.62;88.60;155631.97;5000431;28;21071;-80
2023/09/07 03:54:41;;;;;;;6.57;5.97;;;;;;;16.65;88.25;155639.78;4993328;28;20795;-80
2023/09/07 03:57:09;;;;;;;8.10;6.50;;;;;;;16.71;88.24;155655.34;4980288;28;20445;-79
2023/09/07 03:59:36;;;;;;;7.13;6.43;;;;;;;16.74;88.22;155663.16;4989674;28;20459;-79
2023/09/07 04:02:02;;;;;;;6.23;5.50;;;;;;;16.75;88.20;155665.78;4975098;28;20462;-78
2023/09/07 04:04:29;;;;;;;7.77;6.13;;;;;;;16.79;88.62;155676.19;4964521;28;20478;-79
2023/09/07 04:06:55;;;;;;;6.77;6.10;;;;;;;16.78;88.25;155673.59;4977444;28;20464;-79
2023/09/07 04:09:22;;;;;;;6.70;6.10;;;;;;;16.82;88.10;155684.00;4966321;28;20458;-79
2023/09/07 04:11:49;;;;;;;6.80;6.20;;;;;;;16.88;88.68;155698.31;4973227;28;20437;-78
2023/09/07 04:14:17;;;;;;;7.93;6.23;;;;;;;16.92;88.90;155710.00;4972381;28;20476;-78
2023/09/07 04:16:44;;;;;;;7.90;6.80;;;;;;;16.95;88.79;155716.50;5007332;28;20977;-78
2023/09/07 04:19:10;;;;;;;7.20;6.57;;;;;;;16.98;88.88;155725.63;4969523;28;20818;-79
2023/09/07 04:21:38;;;;;;;6.90;5.80;;;;;;;17.00;88.78;155730.81;4973614;28;20468;-78
2023/09/07 04:24:05;;;;;;;7.10;6.40;;;;;;;17.07;88.88;155747.75;4973809;28;20471;-78
2023/09/07 04:26:32;;;;;;;7.47;6.60;;;;;;;17.07;88.58;155747.75;4973549;28;20476;-79
2023/09/07 04:28:58;;;;;;;7.37;6.67;;;;;;;17.05;88.42;155743.81;4968275;28;20456;-79
2023/09/07 04:31:27;;;;;;;7.17;6.47;;;;;;;17.05;88.47;155743.81;4959694;28;20480;-79
2023/09/07 04:33:54;;;;;;;8.57;6.67;;;;;;;17.07;88.53;155746.44;4964259;28;20452;-79
2023/09/07 04:36:20;;;;;;;8.07;7.27;;;;;;;17.07;88.84;155746.44;4983164;28;20633;-79
2023/09/07 04:38:50;;;;;;;7.90;7.10;;;;;;;17.09;88.98;155751.63;4977023;28;20457;-79
2023/09/07 04:41:16;;;;;;;8.43;7.23;;;;;;;17.06;89.11;155745.13;4973935;28;20437;-79
2023/09/07 04:43:44;;;;;;;8.90;7.30;;;;;;;17.02;89.67;155734.75;4973728;28;20472;-79
2023/09/07 04:46:11;;;;;;;8.60;7.70;;;;;;;16.98;90.05;155725.63;4980495;28;20501;-79
2023/09/07 04:48:41;;;;;;;8.67;7.77;;;;;;;16.97;90.33;155723.00;4994735;28;20909;-78
2023/09/07 04:51:09;;;;;;;7.80;7.00;;;;;;;16.95;90.52;155717.81;4959278;28;20497;-78
2023/09/07 04:53:37;;;;;;;8.23;7.43;;;;;;;16.94;91.17;155713.94;4986030;28;20459;-79
2023/09/07 04:56:05;;;;;;;8.90;8.00;;;;;;;16.90;91.29;155704.81;4955440;28;20449;-78
2023/09/07 04:58:32;;;;;;;8.73;7.83;;;;;;;16.95;91.22;155717.81;4973633;28;20497;-78
2023/09/07 05:01:02;;;;;;;10.77;8.20;;;;;;;16.93;91.12;155712.63;4981766;28;20970;-78
2023/09/07 05:03:30;;;;;;;8.77;7.90;;;;;;;16.95;91.37;155717.81;4947280;28;20717;-79
2023/09/07 05:05:58;;;;;;;9.40;7.33;;;;;;;16.97;91.30;155723.00;4958671;28;20979;-79
2023/09/07 05:08:25;;;;;;;8.20;7.40;;;;;;;17.00;91.12;155729.50;4975487;28;20994;-79
2023/09/07 05:10:56;;;;;;;8.80;7.60;;;;;;;17.09;90.98;155752.94;4944188;28;20456;-79
2023/09/07 05:13:23;;;;;;;8.13;7.20;;;;;;;17.13;90.67;155762.06;4959846;28;20466;-79
2023/09/07 05:15:51;;;;;;;8.40;7.37;;;;;;;17.09;90.80;155751.63;4975308;28;20448;-79
2023/09/07 05:18:19;;;;;;;8.83;7.90;;;;;;;17.12;91.04;155760.78;4962181;28;20481;-79
2023/09/07 05:20:45;;;;;;;9.50;8.60;;;;;;;17.19;90.71;155777.66;4975344;28;20485;-78
2023/09/07 05:23:15;;;;;;;9.90;7.43;;;;;;;17.16;90.72;155771.16;4959578;28;20466;-79
2023/09/07 05:25:45;;;;;;;8.90;7.97;;;;;;;17.20;91.02;155780.28;4960759;28;20486;-80
2023/09/07 05:28:14;;;;;;;8.43;7.63;;;;;;;17.14;90.86;155765.97;4961285;28;20455;-77
2023/09/07 05:30:40;;;;;;;8.60;7.80;;;;;;;17.16;91.00;155769.84;4945517;28;20472;-80
2023/09/07 05:33:08;;;;;;;10.60;8.20;;;;;;;17.21;91.27;155782.91;4960005;28;20569;-79
2023/09/07 05:35:34;;;;;;;8.70;7.67;;;;;;;17.20;91.27;155781.59;4943639;28;21026;-79
2023/09/07 05:38:03;;;;;;;9.53;8.53;;;;;;;17.28;90.97;155801.09;4951568;28;20867;-80
2023/09/07 05:40:31;;;;;;;8.77;7.87;;;;;;;17.23;91.30;155788.09;4959539;28;20474;-80
2023/09/07 05:42:57;;;;;;;10.80;8.10;;;;;;;17.31;90.99;155808.91;4992389;28;20470;-80
2023/09/07 05:45:24;;;;;;;8.70;7.80;;;;;;;17.34;91.21;155816.72;4974567;28;20594;-80
2023/09/07 05:47:51;;;;;;;8.20;7.40;;;;;;;17.39;90.99;155829.75;4974488;28;20530;-80
2023/09/07 05:50:17;;;;;;;9.47;8.10;;;;;;;17.41;91.01;155834.94;4959956;28;20454;-80
2023/09/07 05:52:44;;;;;;;8.90;7.40;;;;;;;17.52;90.54;155863.59;4959783;28;21000;-79
2023/09/07 05:55:11;;;;;;;11.93;7.30;;;;;;;17.67;90.02;155902.69;4993294;28;20480;-79
2023/09/07 05:57:39;;;;;;;10.90;8.00;;;;;;;17.87;89.36;155954.72;4957177;28;20456;-79
2023/09/07 06:00:07;;;;;;;8.23;7.43;;;;;;;18.06;88.26;156004.22;4963631;28;20462;-79
2023/09/07 06:02:40;;;;;;;8.23;7.43;;;;;;;18.18;87.01;156035.50;4961783;28;20459;-79
2023/09/07 06:05:09;;;;;;;8.57;7.70;;;;;;;18.40;85.96;156090.22;4960563;28;20494;-79
2023/09/07 06:07:37;;;;;;;8.17;7.37;;;;;;;18.58;84.84;156137.13;4963067;28;20979;-80
2023/09/07 06:10:05;;;;;;;8.43;7.33;;;;;;;18.77;84.59;156186.66;4960361;28;20463;-80
2023/09/07 06:12:33;;;;;;;8.87;7.30;;;;;;;18.95;83.06;156232.25;4959194;28;20475;-80
2023/09/07 06:15:01;;;;;;;9.50;7.50;;;;;;;19.03;82.25;156254.41;4972313;28;20486;-80
2023/09/07 06:17:29;;;;;;;7.93;7.10;;;;;;;19.18;82.53;156293.50;4957189;28;20451;-80
2023/09/07 06:19:56;;;;;;;8.40;7.60;;;;;;;19.28;80.54;156318.22;4948827;28;20979;-80
2023/09/07 06:22:24;;;;;;;10.07;7.60;;;;;;;19.34;80.37;156333.88;4975427;28;20445;-80
2023/09/07 06:24:51;;;;;;;9.20;7.93;;;;;;;19.40;80.61;156350.91;4975390;28;20475;-80
2023/09/07 06:27:19;;;;;;;12.50;7.10;;;;;;;19.47;79.88;156367.81;4949241;28;20452;-80
2023/09/07 06:29:46;;;;;;;9.27;7.47;;;;;;;19.61;79.32;156404.34;4942204;28;20554;-80
2023/09/07 06:32:15;;;;;;;8.63;7.73;;;;;;;19.81;79.06;156455.16;4944108;28;22021;-80
2023/09/07 06:34:42;;;;;;;8.33;7.10;;;;;;;19.90;78.29;156478.66;4942234;28;20464;-80
2023/09/07 06:37:09;;;;;;;8.90;7.47;;;;;;;20.12;77.97;156534.72;4941078;28;20468;-80
2023/09/07 06:39:36;;;;;;;8.10;7.30;;;;;;;20.32;76.34;156586.94;4975318;28;20455;-80
2023/09/07 06:42:03;;;;;;;8.57;7.50;;;;;;;20.39;75.26;156605.16;4960955;28;20454;-80
2023/09/07 06:44:37;;;;;;;7.87;7.17;;;;;;;20.56;75.19;156650.84;4942148;28;20459;-79
2023/09/07 06:47:04;;;;;;;9.33;7.23;;;;;;;20.78;74.81;156705.66;4973008;28;20567;-79
2023/09/07 06:49:32;;;;;;;7.43;6.63;;;;;;;20.81;73.11;156713.47;4964175;28;20476;-79
2023/09/07 06:51:59;;;;;;;8.20;6.93;;;;;;;20.89;73.28;156735.63;4949333;28;20467;-79
2023/09/07 06:54:26;;;;;;;7.87;7.10;;;;;;;20.93;72.37;156744.78;4957099;28;20486;-79
2023/09/07 06:56:53;;;;;;;7.23;6.53;;;;;;;21.01;73.03;156766.97;4972031;28;20467;-79
2023/09/07 06:59:20;;;;;;;7.80;6.67;;;;;;;21.06;72.31;156778.69;4946573;28;20971;-80
2023/09/07 07:01:46;;;;;;;7.57;6.87;;;;;;;21.17;72.45;156807.47;4942427;28;20517;-80
2023/09/07 07:04:13;;;;;;;8.53;6.77;;;;;;;21.01;71.84;156766.97;4958944;28;20459;-81
2023/09/07 07:06:41;;;;;;;8.10;7.10;;;;;;;20.97;71.98;156755.25;4962355;28;20564;-80
2023/09/07 07:09:09;;;;;;;7.67;6.70;;;;;;;21.10;71.69;156789.22;4946048;28;20466;-80
2023/09/07 07:11:39;;;;;;;8.57;7.77;;;;;;;21.12;71.85;156794.44;4947180;28;20465;-80
2023/09/07 07:14:06;;;;;;;7.73;7.03;;;;;;;21.13;70.64;156797.00;4951653;28;20470;-80
2023/09/07 07:16:32;;;;;;;8.50;7.63;;;;;;;21.12;70.73;156795.75;4967113;28;20450;-81
2023/09/07 07:18:59;;;;;;;7.90;7.20;;;;;;;21.27;71.86;156832.25;4960462;28;20459;-80
2023/09/07 07:21:25;;;;;;;9.03;7.40;;;;;;;21.47;70.58;156885.75;4944529;28;20455;-81
2023/09/07 07:23:53;;;;;;;10.17;6.90;;;;;;;21.73;69.22;156953.69;4959865;28;20470;-80
2023/09/07 07:26:20;;;;;;;7.80;7.00;;;;;;;21.93;67.85;157003.31;4975840;28;20473;-81
2023/09/07 07:28:47;;;;;;;8.63;7.73;;;;;;;21.92;68.27;157000.72;4970212;28;20466;-80
2023/09/07 07:31:13;;;;;;;8.03;7.40;;;;;;;22.13;67.66;157056.88;4959224;28;20834;-80
2023/09/07 07:33:44;;;;;;;7.83;7.00;;;;;;;22.06;67.13;157037.25;4944947;28;20462;-80
2023/09/07 07:36:11;;;;;;;7.90;7.10;;;;;;;22.04;67.54;157032.03;4948373;28;20995;-81
2023/09/07 07:38:38;;;;;;;9.60;7.83;;;;;;;22.09;66.47;157046.41;4943294;28;20489;-81
2023/09/07 07:41:06;;;;;;;8.23;7.43;;;;;;;22.09;67.52;157046.41;4975846;28;20463;-80
2023/09/07 07:43:33;;;;;;;7.83;7.13;;;;;;;22.11;66.92;157050.31;4961118;28;20462;-80
2023/09/07 07:46:00;;;;;;;8.17;7.47;;;;;;;22.21;67.62;157077.75;4959929;28;20501;-81
2023/09/07 07:48:29;;;;;;;7.40;6.70;;;;;;;22.19;66.79;157071.22;4945385;28;20468;-80
2023/09/07 07:50:56;;;;;;;13.63;7.90;;;;;;;22.41;66.96;157130.00;4978047;28;20525;-81
2023/09/07 07:53:23;;;;;;;7.93;7.13;;;;;;;22.75;66.01;157217.56;4977960;28;20822;-81
2023/09/07 07:55:50;;;;;;;8.07;7.37;;;;;;;22.79;65.28;157228.06;4957955;28;20449;-81
2023/09/07 07:58:21;;;;;;;7.17;6.47;;;;;;;22.91;65.40;157259.38;4968541;28;20841;-81
2023/09/07 08:00:50;;;;;;;8.73;7.90;;;;;;;23.16;64.75;157322.13;4959720;28;20457;-81
2023/09/07 08:03:22;;;;;;;8.27;7.47;;;;;;;23.23;64.73;157340.41;4960701;28;20458;-81
2023/09/07 08:05:49;;;;;;;8.40;7.60;;;;;;;23.32;63.50;157365.25;4974602;28;20518;-81
2023/09/07 08:08:17;;;;;;;8.87;7.70;;;;;;;23.52;63.00;157416.25;4976768;28;20513;-81
2023/09/07 08:10:46;;;;;;;8.13;7.40;;;;;;;23.66;63.11;157452.88;4944261;28;20451;-81
2023/09/07 08:13:13;;;;;;;9.33;7.93;;;;;;;23.74;62.07;157473.78;4977142;28;20462;-81
2023/09/07 08:15:41;;;;;;;8.43;7.63;;;;;;;23.74;62.78;157473.78;4978867;28;20465;-82
2023/09/07 08:18:09;;;;;;;8.13;7.43;;;;;;;23.73;61.85;157471.16;4961564;28;20468;-82
2023/09/07 08:20:38;;;;;;;8.07;7.27;;;;;;;23.83;62.46;157496.03;4960070;28;20850;-82
2023/09/07 08:23:07;;;;;;;8.77;7.80;;;;;;;23.83;61.23;157497.28;4945147;28;20462;-82
2023/09/07 08:25:34;;;;;;;8.20;7.50;;;;;;;23.92;61.81;157520.84;4960483;28;20608;-82
2023/09/07 08:28:04;;;;;;;8.53;7.73;;;;;;;23.97;60.74;157532.59;4960334;28;20481;-83
2023/09/07 08:30:31;;;;;;;8.53;7.13;;;;;;;23.91;62.65;157518.22;4977972;28;20445;-82
2023/09/07 08:33:02;;;;;;;8.70;8.00;;;;;;;24.08;60.93;157562.75;4976526;28;20462;-83
2023/09/07 08:35:28;;;;;;;8.83;7.90;;;;;;;24.19;60.32;157590.22;4971771;28;20549;-82
2023/09/07 08:37:57;;;;;;;9.27;8.07;;;;;;;24.19;60.45;157590.22;4977863;28;20477;-83
2023/09/07 08:40:24;;;;;;;8.93;8.10;;;;;;;24.18;60.93;157588.91;4980583;28;20905;-86
2023/09/07 08:42:51;;;;;;;9.50;8.40;;;;;;;24.03;60.34;157549.63;4963462;28;20477;-82
2023/09/07 08:45:22;;;;;;;8.13;7.43;;;;;;;23.70;61.36;157463.31;4981186;28;20450;-79
2023/09/07 08:47:50;;;;;;;9.80;7.93;;;;;;;23.49;62.60;157408.41;4979186;28;20715;-82
2023/09/07 08:50:18;;;;;;;9.37;8.47;;;;;;;23.59;62.37;157434.53;4965650;28;20789;-82
2023/09/07 08:52:45;;;;;;;9.50;8.60;;;;;;;23.71;62.23;157465.94;4963852;28;21161;-83
2023/09/07 08:55:13;;;;;;;9.30;8.50;;;;;;;23.71;61.89;157464.63;4965410;28;20451;-83
2023/09/07 08:57:40;;;;;;;8.57;7.83;;;;;;;23.82;62.44;157494.72;4989475;28;21006;-83
2023/09/07 09:00:13;;;;;;;9.30;8.40;;;;;;;23.97;62.46;157533.91;4979978;28;20446;-83
2023/09/07 09:02:40;;;;;;;9.17;8.27;;;;;;;24.08;61.47;157562.75;4947506;28;21010;-83
2023/09/07 09:05:10;;;;;;;8.57;7.77;;;;;;;24.06;61.39;157557.47;4977132;28;20488;-83
2023/09/07 09:07:38;;;;;;;9.40;8.50;;;;;;;24.03;62.14;157548.31;4980240;28;20484;-83
2023/09/07 09:10:06;;;;;;;8.60;7.70;;;;;;;23.98;62.00;157536.56;4979054;28;20873;-83
2023/09/07 09:12:32;;;;;;;9.70;8.80;;;;;;;23.94;62.44;157524.75;4963247;28;20459;-83
2023/09/07 09:15:00;;;;;;;8.87;8.10;;;;;;;23.82;62.29;157493.41;4977585;28;20513;-82
2023/09/07 09:17:27;;;;;;;8.57;7.87;;;;;;;23.80;63.21;157489.44;4963190;28;20821;-83
2023/09/07 09:19:53;;;;;;;10.67;9.67;;;;;;;23.76;62.41;157477.69;4963606;28;20460;-82
2023/09/07 09:22:32;;;;;;;8.87;8.07;;;;;;;23.63;63.66;157446.34;4985485;28;20559;-83
2023/09/07 09:25:05;;;;;;;9.77;8.47;;;;;;;23.70;63.68;157463.31;4982276;28;20467;-83
2023/09/07 09:27:33;;;;;;;9.27;8.47;;;;;;;23.75;63.47;157476.38;4969704;28;20905;-83
2023/09/07 09:30:00;;;;;;;9.63;8.73;;;;;;;23.74;63.35;157473.78;4979038;28;20450;-82
2023/09/07 09:32:26;;;;;;;9.90;9.00;;;;;;;23.83;63.36;157497.28;4981792;28;20497;-83
2023/09/07 09:34:53;;;;;;;10.67;9.13;;;;;;;23.76;64.41;157479.00;4968761;28;20461;-83
2023/09/07 09:37:19;;;;;;;9.83;8.90;;;;;;;23.87;63.82;157507.78;4964347;28;20517;-83
2023/09/07 09:39:50;;;;;;;9.17;8.10;;;;;;;23.90;64.46;157515.63;4980814;28;20457;-83
2023/09/07 09:42:18;;;;;;;9.63;8.70;;;;;;;23.98;63.73;157536.56;4980873;28;20446;-83
2023/09/07 09:44:45;;;;;;;10.33;9.40;;;;;;;23.81;63.27;157490.75;4979532;28;20846;-82
2023/09/07 09:47:13;;;;;;;10.10;9.00;;;;;;;23.74;64.60;157472.47;4973978;28;20488;-82
2023/09/07 09:49:40;;;;;;;9.77;8.87;;;;;;;23.66;64.82;157451.56;4979272;28;20469;-82
2023/09/07 09:52:07;;;;;;;9.40;8.50;;;;;;;23.71;65.80;157465.94;4962486;28;20462;-83
2023/09/07 09:54:36;;;;;;;8.30;7.50;;;;;;;23.82;66.00;157493.41;4962005;28;20455;-82
2023/09/07 09:57:02;;;;;;;9.33;8.53;;;;;;;23.87;64.73;157506.47;4963631;28;20544;-82
2023/09/07 09:59:30;;;;;;;9.10;8.30;;;;;;;23.91;65.68;157518.22;4963646;28;20457;-82
2023/09/07 10:01:58;;;;;;;8.33;7.63;;;;;;;23.84;66.15;157499.94;4976725;28;20560;-82
2023/09/07 10:04:25;;;;;;;9.10;8.20;;;;;;;23.84;65.57;157499.94;4978733;28;20464;-83
2023/09/07 10:06:55;;;;;;;8.90;8.00;;;;;;;23.92;66.20;157519.53;4975842;28;20495;-82
2023/09/07 10:09:22;;;;;;;9.27;8.47;;;;;;;24.07;66.10;157560.06;4961239;28;20532;-82
2023/09/07 10:11:53;;;;;;;12.87;8.70;;;;;;;24.22;64.03;157599.31;4975910;28;20461;-82
2023/09/07 10:14:20;;;;;;;9.23;8.40;;;;;;;24.12;64.44;157573.19;4980132;28;21061;-82
2023/09/07 10:16:49;;;;;;;13.30;9.23;;;;;;;24.04;64.42;157552.22;4981209;28;20453;-82
2023/09/07 10:19:17;;;;;;;9.97;9.07;;;;;;;23.97;64.16;157532.59;4961913;28;20455;-82
2023/09/07 10:21:43;;;;;;;9.17;8.30;;;;;;;24.03;64.88;157549.63;4977543;28;20826;-82
2023/09/07 10:24:10;;;;;;;8.57;7.80;;;;;;;24.22;63.85;157598.06;4979075;28;20470;-82
2023/09/07 10:26:37;;;;;;;8.83;8.13;;;;;;;24.27;64.89;157609.81;4961725;28;20527;-82
2023/09/07 10:29:05;;;;;;;10.07;8.33;;;;;;;24.41;64.61;157646.47;4961830;28;20461;-82
2023/09/07 10:31:32;;;;;;;12.63;8.60;;;;;;;24.35;62.88;157630.75;4976776;28;20449;-82
2023/09/07 10:34:12;;;;;;;9.03;8.13;;;;;;;24.31;63.67;157620.25;4979132;28;21023;-82
2023/09/07 10:36:38;;;;;;;8.77;7.97;;;;;;;24.21;64.35;157595.44;4979549;28;20667;-82
2023/09/07 10:39:06;;;;;;;8.83;8.03;;;;;;;24.32;62.70;157622.88;4968163;28;20459;-82
2023/09/07 10:41:43;;;;;;;7.90;7.30;;;;;;;24.30;64.70;157619.00;4979746;28;20508;-82
2023/09/07 10:44:12;;;;;;;8.73;7.97;;;;;;;24.39;63.21;157641.19;4974762;28;20461;-81
2023/09/07 10:46:38;;;;;;;7.60;6.93;;;;;;;24.25;64.50;157605.91;4978235;28;20497;-81
2023/09/07 10:49:08;;;;;;;9.17;8.27;;;;;;;24.37;63.53;157635.97;4942742;28;20568;-82
2023/09/07 10:51:43;;;;;;;8.73;7.93;;;;;;;24.35;63.89;157630.75;4973348;28;20459;-82
2023/09/07 10:54:17;;;;;;;9.43;8.50;;;;;;;24.50;65.02;157669.97;4963649;28;20461;-82
2023/09/07 10:56:47;;;;;;;9.70;8.53;;;;;;;24.57;63.99;157688.31;4978990;28;20566;-82
2023/09/07 10:59:14;;;;;;;9.83;8.83;;;;;;;24.56;62.86;157685.69;4978274;28;20469;-82
2023/09/07 11:01:41;;;;;;;9.60;8.70;;;;;;;24.54;64.19;157680.47;4978993;28;20500;-82
2023/09/07 11:04:10;;;;;;;9.17;8.40;;;;;;;24.59;63.09;157693.53;4973243;28;20462;-82
2023/09/07 11:06:40;;;;;;;8.50;7.80;;;;;;;24.61;64.45;157698.75;4977695;28;20461;-83
2023/09/07 11:09:08;;;;;;;9.50;8.60;;;;;;;24.67;64.13;157715.78;4963418;28;20481;-82
2023/09/07 11:11:36;;;;;;;10.23;9.33;;;;;;;24.72;64.22;157727.53;4962722;28;20446;-82
2023/09/07 11:14:03;;;;;;;9.53;8.63;;;;;;;24.71;63.38;157724.91;4962599;28;20474;-82
2023/09/07 11:16:30;;;;;;;8.60;7.80;;;;;;;24.70;63.98;157722.31;4961875;28;20461;-82
2023/09/07 11:18:56;;;;;;;9.53;8.47;;;;;;;24.72;63.85;157727.53;4946041;28;20469;-82
2023/09/07 11:21:23;;;;;;;8.90;8.00;;;;;;;24.79;64.96;157747.22;4959256;28;20474;-82
2023/09/07 11:23:52;;;;;;;9.70;8.80;;;;;;;24.75;63.36;157735.41;4975530;28;20457;-82
2023/09/07 11:26:19;;;;;;;10.33;9.33;;;;;;;24.79;64.35;157745.88;4974579;28;20462;-82